sensor_id;sensor_type;location;lat;lon;timestamp;P1;durP1;ratioP1;P2;durP2;ratioP2
54555;SDS011;57291;37.520;15.106;2023-02-01T00:00:30;17.50;;;5.53;;
54555;SDS011;57291;37.520;15.106;2023-02-01T00:03:00;9.63;;;5.15;;
54555;SDS011;57291;37.520;15.106;2023-02-01T00:05:27;9.45;;;4.97;;
54555;SDS011;57291;37.520;15.106;2023-02-01T00:07:55;10.50;;;4.28;;
54555;SDS011;57291;37.520;15.106;2023-02-01T00:10:22;7.32;;;4.07;;
54555;SDS011;57291;37.520;15.106;2023-02-01T00:12:49;9.05;;;4.18;;
54555;SDS011;57291;37.520;15.106;2023-02-01T00:15:16;7.05;;;4.00;;
54555;SDS011;57291;37.520;15.106;2023-02-01T00:17:44;6.88;;;3.83;;
54555;SDS011;57291;37.520;15.106;2023-02-01T00:20:11;9.05;;;3.55;;
54555;SDS011;57291;37.520;15.106;2023-02-01T00:22:38;8.98;;;3.90;;
54555;SDS011;57291;37.520;15.106;2023-02-01T00:25:05;9.05;;;3.92;;
54555;SDS011;57291;37.520;15.106;2023-02-01T00:27:33;6.85;;;3.60;;
54555;SDS011;57291;37.520;15.106;2023-02-01T00:30:00;8.23;;;3.65;;
54555;SDS011;57291;37.520;15.106;2023-02-01T00:32:27;5.47;;;3.38;;
54555;SDS011;57291;37.520;15.106;2023-02-01T00:34:54;6.47;;;3.28;;
54555;SDS011;57291;37.520;15.106;2023-02-01T00:37:21;6.50;;;3.25;;
54555;SDS011;57291;37.520;15.106;2023-02-01T00:39:49;6.03;;;3.38;;
54555;SDS011;57291;37.520;15.106;2023-02-01T00:42:17;7.47;;;3.45;;
54555;SDS011;57291;37.520;15.106;2023-02-01T00:44:44;5.60;;;3.00;;
54555;SDS011;57291;37.520;15.106;2023-02-01T00:47:12;6.53;;;2.90;;
54555;SDS011;57291;37.520;15.106;2023-02-01T00:49:39;7.80;;;3.47;;
54555;SDS011;57291;37.520;15.106;2023-02-01T00:52:06;4.68;;;3.05;;
54555;SDS011;57291;37.520;15.106;2023-02-01T00:54:33;9.30;;;2.80;;
54555;SDS011;57291;37.520;15.106;2023-02-01T00:57:01;5.78;;;2.72;;
54555;SDS011;57291;37.520;15.106;2023-02-01T00:59:28;7.40;;;3.03;;
54555;SDS011;57291;37.520;15.106;2023-02-01T01:01:55;5.60;;;2.55;;
54555;SDS011;57291;37.520;15.106;2023-02-01T01:04:22;5.75;;;2.80;;
54555;SDS011;57291;37.520;15.106;2023-02-01T01:06:49;6.28;;;2.78;;
54555;SDS011;57291;37.520;15.106;2023-02-01T01:09:16;7.03;;;2.50;;
54555;SDS011;57291;37.520;15.106;2023-02-01T01:11:43;7.03;;;2.78;;
54555;SDS011;57291;37.520;15.106;2023-02-01T01:14:11;4.70;;;2.47;;
54555;SDS011;57291;37.520;15.106;2023-02-01T01:16:38;5.22;;;3.10;;
54555;SDS011;57291;37.520;15.106;2023-02-01T01:19:05;6.20;;;2.70;;
54555;SDS011;57291;37.520;15.106;2023-02-01T01:21:33;5.10;;;2.55;;
54555;SDS011;57291;37.520;15.106;2023-02-01T01:24:00;5.75;;;2.78;;
54555;SDS011;57291;37.520;15.106;2023-02-01T01:26:28;4.25;;;2.25;;
54555;SDS011;57291;37.520;15.106;2023-02-01T01:28:56;5.97;;;2.30;;
54555;SDS011;57291;37.520;15.106;2023-02-01T01:31:25;7.82;;;2.22;;
54555;SDS011;57291;37.520;15.106;2023-02-01T01:33:54;6.20;;;2.45;;
54555;SDS011;57291;37.520;15.106;2023-02-01T01:36:23;6.35;;;2.03;;
54555;SDS011;57291;37.520;15.106;2023-02-01T01:38:52;5.90;;;2.35;;
54555;SDS011;57291;37.520;15.106;2023-02-01T01:41:21;4.30;;;2.40;;
54555;SDS011;57291;37.520;15.106;2023-02-01T01:46:30;6.18;;;2.58;;
54555;SDS011;57291;37.520;15.106;2023-02-01T01:49:18;5.47;;;2.90;;
54555;SDS011;57291;37.520;15.106;2023-02-01T01:51:55;4.05;;;2.50;;
54555;SDS011;57291;37.520;15.106;2023-02-01T01:54:33;4.25;;;2.60;;
54555;SDS011;57291;37.520;15.106;2023-02-01T01:57:14;4.82;;;1.95;;
54555;SDS011;57291;37.520;15.106;2023-02-01T01:59:46;4.20;;;2.33;;
54555;SDS011;57291;37.520;15.106;2023-02-01T02:02:19;4.22;;;2.10;;
54555;SDS011;57291;37.520;15.106;2023-02-01T02:04:47;4.10;;;2.13;;
54555;SDS011;57291;37.520;15.106;2023-02-01T02:07:16;5.03;;;2.15;;
54555;SDS011;57291;37.520;15.106;2023-02-01T02:09:46;5.50;;;2.38;;
54555;SDS011;57291;37.520;15.106;2023-02-01T02:12:26;5.65;;;2.42;;
54555;SDS011;57291;37.520;15.106;2023-02-01T02:14:54;4.32;;;2.10;;
54555;SDS011;57291;37.520;15.106;2023-02-01T02:26:21;3.83;;;2.30;;
54555;SDS011;57291;37.520;15.106;2023-02-01T02:34:05;4.35;;;2.50;;
54555;SDS011;57291;37.520;15.106;2023-02-01T02:39:16;4.82;;;2.40;;
54555;SDS011;57291;37.520;15.106;2023-02-01T02:44:56;4.45;;;2.30;;
54555;SDS011;57291;37.520;15.106;2023-02-01T02:50:36;4.88;;;2.38;;
54555;SDS011;57291;37.520;15.106;2023-02-01T02:53:30;4.93;;;2.27;;
54555;SDS011;57291;37.520;15.106;2023-02-01T02:56:20;7.47;;;2.88;;
54555;SDS011;57291;37.520;15.106;2023-02-01T02:59:07;4.63;;;2.28;;
54555;SDS011;57291;37.520;15.106;2023-02-01T03:01:54;5.57;;;2.40;;
54555;SDS011;57291;37.520;15.106;2023-02-01T03:04:40;6.25;;;2.63;;
54555;SDS011;57291;37.520;15.106;2023-02-01T03:12:59;5.22;;;3.00;;
54555;SDS011;57291;37.520;15.106;2023-02-01T03:18:04;6.13;;;2.80;;
54555;SDS011;57291;37.520;15.106;2023-02-01T03:20:40;6.85;;;2.97;;
54555;SDS011;57291;37.520;15.106;2023-02-01T03:23:11;5.88;;;2.60;;
54555;SDS011;57291;37.520;15.106;2023-02-01T03:25:42;5.22;;;2.67;;
54555;SDS011;57291;37.520;15.106;2023-02-01T03:28:11;7.18;;;2.70;;
54555;SDS011;57291;37.520;15.106;2023-02-01T03:30:41;5.43;;;2.67;;
54555;SDS011;57291;37.520;15.106;2023-02-01T03:33:19;4.55;;;2.30;;
54555;SDS011;57291;37.520;15.106;2023-02-01T03:43:45;7.78;;;3.00;;
54555;SDS011;57291;37.520;15.106;2023-02-01T03:46:41;6.30;;;2.90;;
54555;SDS011;57291;37.520;15.106;2023-02-01T03:52:13;7.18;;;2.70;;
54555;SDS011;57291;37.520;15.106;2023-02-01T03:54:43;6.13;;;3.13;;
54555;SDS011;57291;37.520;15.106;2023-02-01T03:57:13;5.22;;;2.80;;
54555;SDS011;57291;37.520;15.106;2023-02-01T03:59:47;6.88;;;3.05;;
54555;SDS011;57291;37.520;15.106;2023-02-01T04:02:15;5.22;;;2.92;;
54555;SDS011;57291;37.520;15.106;2023-02-01T04:04:42;4.35;;;2.85;;
54555;SDS011;57291;37.520;15.106;2023-02-01T04:07:12;6.25;;;3.20;;
54555;SDS011;57291;37.520;15.106;2023-02-01T04:09:40;6.55;;;3.05;;
54555;SDS011;57291;37.520;15.106;2023-02-01T04:12:07;8.00;;;3.22;;
54555;SDS011;57291;37.520;15.106;2023-02-01T04:14:34;5.65;;;3.00;;
54555;SDS011;57291;37.520;15.106;2023-02-01T04:17:01;5.85;;;3.25;;
54555;SDS011;57291;37.520;15.106;2023-02-01T04:19:28;6.97;;;2.90;;
54555;SDS011;57291;37.520;15.106;2023-02-01T04:21:55;5.55;;;3.03;;
54555;SDS011;57291;37.520;15.106;2023-02-01T04:24:22;6.40;;;3.20;;
54555;SDS011;57291;37.520;15.106;2023-02-01T04:26:49;6.20;;;3.03;;
54555;SDS011;57291;37.520;15.106;2023-02-01T04:29:17;4.82;;;2.67;;
54555;SDS011;57291;37.520;15.106;2023-02-01T04:31:44;7.78;;;3.42;;
54555;SDS011;57291;37.520;15.106;2023-02-01T04:34:12;6.78;;;3.55;;
54555;SDS011;57291;37.520;15.106;2023-02-01T04:36:40;3.67;;;2.70;;
54555;SDS011;57291;37.520;15.106;2023-02-01T04:39:08;6.50;;;3.00;;
54555;SDS011;57291;37.520;15.106;2023-02-01T04:41:36;8.27;;;2.80;;
54555;SDS011;57291;37.520;15.106;2023-02-01T04:44:03;5.28;;;3.03;;
54555;SDS011;57291;37.520;15.106;2023-02-01T04:46:30;6.78;;;3.25;;
54555;SDS011;57291;37.520;15.106;2023-02-01T04:48:57;5.55;;;3.13;;
54555;SDS011;57291;37.520;15.106;2023-02-01T04:51:24;6.32;;;3.30;;
54555;SDS011;57291;37.520;15.106;2023-02-01T04:53:51;5.22;;;3.25;;
54555;SDS011;57291;37.520;15.106;2023-02-01T04:56:18;7.25;;;3.40;;
54555;SDS011;57291;37.520;15.106;2023-02-01T04:58:45;8.80;;;3.67;;
54555;SDS011;57291;37.520;15.106;2023-02-01T05:01:12;6.80;;;3.40;;
54555;SDS011;57291;37.520;15.106;2023-02-01T05:03:41;9.60;;;3.80;;
54555;SDS011;57291;37.520;15.106;2023-02-01T05:06:08;8.88;;;3.58;;
54555;SDS011;57291;37.520;15.106;2023-02-01T05:08:35;7.50;;;3.63;;
54555;SDS011;57291;37.520;15.106;2023-02-01T05:11:04;7.72;;;3.60;;
54555;SDS011;57291;37.520;15.106;2023-02-01T05:13:31;5.32;;;3.20;;
54555;SDS011;57291;37.520;15.106;2023-02-01T05:16:17;5.88;;;3.55;;
54555;SDS011;57291;37.520;15.106;2023-02-01T05:18:44;8.43;;;3.88;;
54555;SDS011;57291;37.520;15.106;2023-02-01T05:21:11;8.73;;;3.38;;
54555;SDS011;57291;37.520;15.106;2023-02-01T05:23:39;7.50;;;3.13;;
54555;SDS011;57291;37.520;15.106;2023-02-01T05:26:24;9.60;;;3.50;;
54555;SDS011;57291;37.520;15.106;2023-02-01T05:28:51;5.90;;;3.67;;
54555;SDS011;57291;37.520;15.106;2023-02-01T05:31:18;6.43;;;3.58;;
54555;SDS011;57291;37.520;15.106;2023-02-01T05:33:46;7.35;;;3.50;;
54555;SDS011;57291;37.520;15.106;2023-02-01T05:36:14;8.23;;;3.72;;
54555;SDS011;57291;37.520;15.106;2023-02-01T05:38:41;6.63;;;3.28;;
54555;SDS011;57291;37.520;15.106;2023-02-01T05:41:08;5.10;;;3.20;;
54555;SDS011;57291;37.520;15.106;2023-02-01T05:43:35;13.02;;;3.28;;
54555;SDS011;57291;37.520;15.106;2023-02-01T05:46:02;7.25;;;3.10;;
54555;SDS011;57291;37.520;15.106;2023-02-01T05:48:30;5.57;;;3.15;;
54555;SDS011;57291;37.520;15.106;2023-02-01T05:50:56;7.60;;;2.85;;
54555;SDS011;57291;37.520;15.106;2023-02-01T05:53:24;6.80;;;3.05;;
54555;SDS011;57291;37.520;15.106;2023-02-01T05:55:51;13.65;;;3.47;;
54555;SDS011;57291;37.520;15.106;2023-02-01T05:58:18;6.13;;;3.25;;
54555;SDS011;57291;37.520;15.106;2023-02-01T06:00:45;9.00;;;4.03;;
54555;SDS011;57291;37.520;15.106;2023-02-01T06:03:12;5.93;;;2.97;;
54555;SDS011;57291;37.520;15.106;2023-02-01T06:05:39;5.00;;;3.08;;
54555;SDS011;57291;37.520;15.106;2023-02-01T06:08:06;5.63;;;3.35;;
54555;SDS011;57291;37.520;15.106;2023-02-01T06:10:34;8.20;;;3.67;;
54555;SDS011;57291;37.520;15.106;2023-02-01T06:13:01;7.78;;;4.07;;
54555;SDS011;57291;37.520;15.106;2023-02-01T06:15:29;7.18;;;3.78;;
54555;SDS011;57291;37.520;15.106;2023-02-01T06:17:57;7.93;;;3.45;;
54555;SDS011;57291;37.520;15.106;2023-02-01T06:20:24;6.78;;;3.90;;
54555;SDS011;57291;37.520;15.106;2023-02-01T06:22:52;11.85;;;3.80;;
54555;SDS011;57291;37.520;15.106;2023-02-01T06:25:19;8.70;;;3.85;;
54555;SDS011;57291;37.520;15.106;2023-02-01T06:27:47;7.07;;;4.13;;
54555;SDS011;57291;37.520;15.106;2023-02-01T06:30:15;9.40;;;3.95;;
54555;SDS011;57291;37.520;15.106;2023-02-01T06:32:43;10.20;;;5.40;;
54555;SDS011;57291;37.520;15.106;2023-02-01T06:35:10;11.68;;;5.97;;
54555;SDS011;57291;37.520;15.106;2023-02-01T06:37:42;11.10;;;5.50;;
54555;SDS011;57291;37.520;15.106;2023-02-01T06:40:10;12.40;;;5.28;;
54555;SDS011;57291;37.520;15.106;2023-02-01T06:42:37;11.98;;;5.13;;
54555;SDS011;57291;37.520;15.106;2023-02-01T06:45:05;12.77;;;5.57;;
54555;SDS011;57291;37.520;15.106;2023-02-01T06:47:36;12.57;;;6.00;;
54555;SDS011;57291;37.520;15.106;2023-02-01T06:50:03;15.23;;;5.60;;
54555;SDS011;57291;37.520;15.106;2023-02-01T06:52:31;15.25;;;6.47;;
54555;SDS011;57291;37.520;15.106;2023-02-01T06:54:58;13.85;;;6.97;;
54555;SDS011;57291;37.520;15.106;2023-02-01T06:57:25;13.52;;;6.80;;
54555;SDS011;57291;37.520;15.106;2023-02-01T06:59:56;14.25;;;6.65;;
54555;SDS011;57291;37.520;15.106;2023-02-01T07:02:25;13.63;;;7.30;;
54555;SDS011;57291;37.520;15.106;2023-02-01T07:04:52;12.90;;;7.15;;
54555;SDS011;57291;37.520;15.106;2023-02-01T07:07:19;16.40;;;7.72;;
54555;SDS011;57291;37.520;15.106;2023-02-01T07:09:49;16.13;;;8.40;;
54555;SDS011;57291;37.520;15.106;2023-02-01T07:12:16;16.67;;;8.73;;
54555;SDS011;57291;37.520;15.106;2023-02-01T07:14:43;16.70;;;8.40;;
54555;SDS011;57291;37.520;15.106;2023-02-01T07:17:10;13.93;;;8.52;;
54555;SDS011;57291;37.520;15.106;2023-02-01T07:19:37;17.45;;;8.68;;
54555;SDS011;57291;37.520;15.106;2023-02-01T07:22:05;22.98;;;9.07;;
54555;SDS011;57291;37.520;15.106;2023-02-01T07:24:33;18.92;;;10.25;;
54555;SDS011;57291;37.520;15.106;2023-02-01T07:27:00;17.63;;;9.50;;
54555;SDS011;57291;37.520;15.106;2023-02-01T07:29:28;17.02;;;8.52;;
54555;SDS011;57291;37.520;15.106;2023-02-01T07:31:55;14.43;;;7.07;;
54555;SDS011;57291;37.520;15.106;2023-02-01T07:34:22;15.35;;;5.95;;
54555;SDS011;57291;37.520;15.106;2023-02-01T07:36:49;17.67;;;6.93;;
54555;SDS011;57291;37.520;15.106;2023-02-01T07:39:16;15.02;;;6.57;;
54555;SDS011;57291;37.520;15.106;2023-02-01T07:41:43;19.25;;;7.72;;
54555;SDS011;57291;37.520;15.106;2023-02-01T07:44:12;16.05;;;6.80;;
54555;SDS011;57291;37.520;15.106;2023-02-01T07:46:39;19.52;;;6.70;;
54555;SDS011;57291;37.520;15.106;2023-02-01T07:49:06;17.38;;;6.10;;
54555;SDS011;57291;37.520;15.106;2023-02-01T07:51:33;16.50;;;7.00;;
54555;SDS011;57291;37.520;15.106;2023-02-01T07:54:00;11.80;;;5.88;;
54555;SDS011;57291;37.520;15.106;2023-02-01T07:56:27;10.60;;;5.90;;
54555;SDS011;57291;37.520;15.106;2023-02-01T07:58:54;9.90;;;5.13;;
54555;SDS011;57291;37.520;15.106;2023-02-01T08:01:23;11.13;;;5.55;;
54555;SDS011;57291;37.520;15.106;2023-02-01T08:03:54;13.20;;;5.72;;
54555;SDS011;57291;37.520;15.106;2023-02-01T08:06:23;13.32;;;6.63;;
54555;SDS011;57291;37.520;15.106;2023-02-01T08:08:51;18.08;;;8.25;;
54555;SDS011;57291;37.520;15.106;2023-02-01T08:11:20;20.30;;;9.88;;
54555;SDS011;57291;37.520;15.106;2023-02-01T08:13:48;17.55;;;10.27;;
54555;SDS011;57291;37.520;15.106;2023-02-01T08:16:16;24.52;;;10.85;;
54555;SDS011;57291;37.520;15.106;2023-02-01T08:18:44;23.77;;;9.27;;
54555;SDS011;57291;37.520;15.106;2023-02-01T08:21:13;14.73;;;7.50;;
54555;SDS011;57291;37.520;15.106;2023-02-01T08:23:45;20.13;;;6.00;;
54555;SDS011;57291;37.520;15.106;2023-02-01T08:28:42;10.38;;;4.05;;
54555;SDS011;57291;37.520;15.106;2023-02-01T08:31:12;9.93;;;3.38;;
54555;SDS011;57291;37.520;15.106;2023-02-01T08:33:42;8.15;;;3.00;;
54555;SDS011;57291;37.520;15.106;2023-02-01T08:36:11;9.88;;;3.13;;
54555;SDS011;57291;37.520;15.106;2023-02-01T08:38:40;7.60;;;2.92;;
54555;SDS011;57291;37.520;15.106;2023-02-01T08:41:11;7.00;;;2.95;;
54555;SDS011;57291;37.520;15.106;2023-02-01T08:43:40;7.97;;;2.75;;
54555;SDS011;57291;37.520;15.106;2023-02-01T08:46:08;6.68;;;2.72;;
54555;SDS011;57291;37.520;15.106;2023-02-01T08:48:38;9.80;;;3.20;;
54555;SDS011;57291;37.520;15.106;2023-02-01T08:51:10;7.80;;;3.00;;
54555;SDS011;57291;37.520;15.106;2023-02-01T08:53:39;9.88;;;3.30;;
54555;SDS011;57291;37.520;15.106;2023-02-01T08:56:08;8.68;;;3.08;;
54555;SDS011;57291;37.520;15.106;2023-02-01T08:58:37;7.10;;;3.63;;
54555;SDS011;57291;37.520;15.106;2023-02-01T09:01:05;7.50;;;3.17;;
54555;SDS011;57291;37.520;15.106;2023-02-01T09:03:34;9.25;;;3.70;;
54555;SDS011;57291;37.520;15.106;2023-02-01T09:06:02;8.93;;;2.85;;
54555;SDS011;57291;37.520;15.106;2023-02-01T09:08:31;8.35;;;3.42;;
54555;SDS011;57291;37.520;15.106;2023-02-01T09:11:00;6.82;;;3.00;;
54555;SDS011;57291;37.520;15.106;2023-02-01T09:13:29;5.70;;;2.15;;
54555;SDS011;57291;37.520;15.106;2023-02-01T09:15:56;6.35;;;2.50;;
54555;SDS011;57291;37.520;15.106;2023-02-01T09:18:26;4.78;;;1.98;;
54555;SDS011;57291;37.520;15.106;2023-02-01T09:20:53;9.52;;;1.65;;
54555;SDS011;57291;37.520;15.106;2023-02-01T09:23:21;3.22;;;1.70;;
54555;SDS011;57291;37.520;15.106;2023-02-01T09:25:49;4.32;;;2.10;;
54555;SDS011;57291;37.520;15.106;2023-02-01T09:28:18;5.00;;;1.95;;
54555;SDS011;57291;37.520;15.106;2023-02-01T09:30:46;4.80;;;1.90;;
54555;SDS011;57291;37.520;15.106;2023-02-01T09:33:13;3.88;;;1.40;;
54555;SDS011;57291;37.520;15.106;2023-02-01T09:35:40;5.22;;;1.60;;
54555;SDS011;57291;37.520;15.106;2023-02-01T09:38:08;7.13;;;2.10;;
54555;SDS011;57291;37.520;15.106;2023-02-01T09:40:35;4.95;;;1.90;;
54555;SDS011;57291;37.520;15.106;2023-02-01T09:43:06;5.00;;;2.00;;
54555;SDS011;57291;37.520;15.106;2023-02-01T09:48:15;5.75;;;2.50;;
54555;SDS011;57291;37.520;15.106;2023-02-01T09:50:56;5.60;;;2.45;;
54555;SDS011;57291;37.520;15.106;2023-02-01T09:56:05;5.32;;;2.35;;
54555;SDS011;57291;37.520;15.106;2023-02-01T09:58:42;5.70;;;2.17;;
54555;SDS011;57291;37.520;15.106;2023-02-01T10:01:15;6.63;;;2.00;;
54555;SDS011;57291;37.520;15.106;2023-02-01T10:03:46;6.40;;;2.60;;
54555;SDS011;57291;37.520;15.106;2023-02-01T10:20:12;4.68;;;1.60;;
54555;SDS011;57291;37.520;15.106;2023-02-01T10:22:45;5.10;;;1.83;;
54555;SDS011;57291;37.520;15.106;2023-02-01T10:25:43;5.65;;;1.38;;
54555;SDS011;57291;37.520;15.106;2023-02-01T10:28:30;4.88;;;1.83;;
54555;SDS011;57291;37.520;15.106;2023-02-01T10:31:03;7.32;;;1.92;;
54555;SDS011;57291;37.520;15.106;2023-02-01T10:33:36;5.93;;;2.00;;
54555;SDS011;57291;37.520;15.106;2023-02-01T10:39:23;3.25;;;2.20;;
54555;SDS011;57291;37.520;15.106;2023-02-01T10:41:51;4.60;;;1.85;;
54555;SDS011;57291;37.520;15.106;2023-02-01T10:44:22;5.75;;;3.00;;
54555;SDS011;57291;37.520;15.106;2023-02-01T10:46:52;7.88;;;3.33;;
54555;SDS011;57291;37.520;15.106;2023-02-01T10:49:26;7.35;;;3.35;;
54555;SDS011;57291;37.520;15.106;2023-02-01T10:54:43;5.15;;;2.95;;
54555;SDS011;57291;37.520;15.106;2023-02-01T10:57:20;5.75;;;2.13;;
54555;SDS011;57291;37.520;15.106;2023-02-01T10:59:55;4.65;;;1.83;;
54555;SDS011;57291;37.520;15.106;2023-02-01T11:02:26;5.22;;;1.92;;
54555;SDS011;57291;37.520;15.106;2023-02-01T11:07:31;5.22;;;1.60;;
54555;SDS011;57291;37.520;15.106;2023-02-01T11:09:59;3.15;;;1.30;;
54555;SDS011;57291;37.520;15.106;2023-02-01T11:12:33;4.65;;;1.70;;
54555;SDS011;57291;37.520;15.106;2023-02-01T11:18:12;6.80;;;1.95;;
54555;SDS011;57291;37.520;15.106;2023-02-01T11:20:43;3.95;;;1.92;;
54555;SDS011;57291;37.520;15.106;2023-02-01T11:23:16;4.85;;;2.08;;
54555;SDS011;57291;37.520;15.106;2023-02-01T11:25:50;4.93;;;1.80;;
54555;SDS011;57291;37.520;15.106;2023-02-01T11:28:25;6.45;;;2.10;;
54555;SDS011;57291;37.520;15.106;2023-02-01T11:30:56;4.15;;;2.00;;
54555;SDS011;57291;37.520;15.106;2023-02-01T11:33:31;7.93;;;1.90;;
54555;SDS011;57291;37.520;15.106;2023-02-01T11:36:08;6.13;;;1.60;;
54555;SDS011;57291;37.520;15.106;2023-02-01T11:38:38;4.35;;;1.52;;
54555;SDS011;57291;37.520;15.106;2023-02-01T11:43:53;4.35;;;1.58;;
54555;SDS011;57291;37.520;15.106;2023-02-01T11:46:29;6.82;;;1.63;;
54555;SDS011;57291;37.520;15.106;2023-02-01T11:49:44;2.80;;;1.60;;
54555;SDS011;57291;37.520;15.106;2023-02-01T11:51:57;5.07;;;1.65;;
54555;SDS011;57291;37.520;15.106;2023-02-01T11:57:39;4.57;;;1.70;;
54555;SDS011;57291;37.520;15.106;2023-02-01T12:01:07;4.82;;;1.65;;
54555;SDS011;57291;37.520;15.106;2023-02-01T12:03:30;3.75;;;1.90;;
54555;SDS011;57291;37.520;15.106;2023-02-01T12:09:04;3.55;;;1.30;;
54555;SDS011;57291;37.520;15.106;2023-02-01T12:11:59;4.35;;;1.60;;
54555;SDS011;57291;37.520;15.106;2023-02-01T12:28:17;4.88;;;1.60;;
54555;SDS011;57291;37.520;15.106;2023-02-01T12:39:19;5.75;;;2.00;;
54555;SDS011;57291;37.520;15.106;2023-02-01T12:44:42;5.05;;;1.55;;
54555;SDS011;57291;37.520;15.106;2023-02-01T12:50:14;5.15;;;1.40;;
54555;SDS011;57291;37.520;15.106;2023-02-01T12:52:49;6.22;;;1.40;;
54555;SDS011;57291;37.520;15.106;2023-02-01T12:58:12;3.00;;;1.20;;
54555;SDS011;57291;37.520;15.106;2023-02-01T13:00:47;3.80;;;1.25;;
54555;SDS011;57291;37.520;15.106;2023-02-01T13:06:26;4.43;;;1.42;;
54555;SDS011;57291;37.520;15.106;2023-02-01T13:11:34;4.95;;;1.30;;
54555;SDS011;57291;37.520;15.106;2023-02-01T13:17:08;2.88;;;1.38;;
54555;SDS011;57291;37.520;15.106;2023-02-01T13:19:44;3.63;;;1.40;;
54555;SDS011;57291;37.520;15.106;2023-02-01T13:22:15;2.63;;;1.10;;
54555;SDS011;57291;37.520;15.106;2023-02-01T13:24:49;2.58;;;1.00;;
54555;SDS011;57291;37.520;15.106;2023-02-01T13:27:26;2.95;;;1.20;;
54555;SDS011;57291;37.520;15.106;2023-02-01T13:29:58;6.07;;;1.40;;
54555;SDS011;57291;37.520;15.106;2023-02-01T13:32:40;3.88;;;1.40;;
54555;SDS011;57291;37.520;15.106;2023-02-01T13:47:29;4.00;;;1.23;;
54555;SDS011;57291;37.520;15.106;2023-02-01T13:50:23;4.78;;;1.50;;
54555;SDS011;57291;37.520;15.106;2023-02-01T13:55:45;4.78;;;1.60;;
54555;SDS011;57291;37.520;15.106;2023-02-01T13:58:37;7.57;;;1.10;;
54555;SDS011;57291;37.520;15.106;2023-02-01T14:09:12;2.88;;;1.13;;
54555;SDS011;57291;37.520;15.106;2023-02-01T14:11:45;4.53;;;1.30;;
54555;SDS011;57291;37.520;15.106;2023-02-01T14:21:56;3.33;;;1.02;;
54555;SDS011;57291;37.520;15.106;2023-02-01T14:24:42;3.90;;;1.30;;
54555;SDS011;57291;37.520;15.106;2023-02-01T14:27:27;4.93;;;1.40;;
54555;SDS011;57291;37.520;15.106;2023-02-01T14:30:02;4.07;;;1.70;;
54555;SDS011;57291;37.520;15.106;2023-02-01T14:32:37;3.42;;;1.20;;
54555;SDS011;57291;37.520;15.106;2023-02-01T14:35:15;3.00;;;1.40;;
54555;SDS011;57291;37.520;15.106;2023-02-01T14:37:51;3.63;;;1.40;;
54555;SDS011;57291;37.520;15.106;2023-02-01T14:40:26;1.70;;;1.00;;
54555;SDS011;57291;37.520;15.106;2023-02-01T14:42:55;3.42;;;1.45;;
54555;SDS011;57291;37.520;15.106;2023-02-01T14:55:47;4.20;;;2.03;;
54555;SDS011;57291;37.520;15.106;2023-02-01T14:58:18;5.35;;;1.27;;
54555;SDS011;57291;37.520;15.106;2023-02-01T15:03:38;3.95;;;1.55;;
54555;SDS011;57291;37.520;15.106;2023-02-01T15:09:09;4.55;;;2.08;;
54555;SDS011;57291;37.520;15.106;2023-02-01T15:14:37;5.90;;;1.75;;
54555;SDS011;57291;37.520;15.106;2023-02-01T15:19:54;8.40;;;2.20;;
54555;SDS011;57291;37.520;15.106;2023-02-01T15:22:23;8.68;;;1.80;;
54555;SDS011;57291;37.520;15.106;2023-02-01T15:24:52;7.75;;;1.90;;
54555;SDS011;57291;37.520;15.106;2023-02-01T15:27:20;7.68;;;1.83;;
54555;SDS011;57291;37.520;15.106;2023-02-01T15:29:48;9.50;;;2.25;;
54555;SDS011;57291;37.520;15.106;2023-02-01T15:32:37;7.57;;;2.35;;
54555;SDS011;57291;37.520;15.106;2023-02-01T15:35:31;6.85;;;1.95;;
54555;SDS011;57291;37.520;15.106;2023-02-01T15:43:41;12.75;;;2.42;;
54555;SDS011;57291;37.520;15.106;2023-02-01T15:46:10;6.95;;;2.05;;
54555;SDS011;57291;37.520;15.106;2023-02-01T15:48:45;8.73;;;1.92;;
54555;SDS011;57291;37.520;15.106;2023-02-01T15:51:17;8.00;;;2.15;;
54555;SDS011;57291;37.520;15.106;2023-02-01T15:53:54;5.80;;;1.83;;
54555;SDS011;57291;37.520;15.106;2023-02-01T15:56:26;6.60;;;1.98;;
54555;SDS011;57291;37.520;15.106;2023-02-01T15:58:58;5.40;;;1.83;;
54555;SDS011;57291;37.520;15.106;2023-02-01T16:01:28;8.63;;;1.88;;
54555;SDS011;57291;37.520;15.106;2023-02-01T16:04:29;6.18;;;1.85;;
54555;SDS011;57291;37.520;15.106;2023-02-01T16:06:57;8.90;;;2.05;;
54555;SDS011;57291;37.520;15.106;2023-02-01T16:09:38;6.85;;;1.73;;
54555;SDS011;57291;37.520;15.106;2023-02-01T16:13:00;11.38;;;2.45;;
54555;SDS011;57291;37.520;15.106;2023-02-01T16:15:08;5.88;;;1.70;;
54555;SDS011;57291;37.520;15.106;2023-02-01T16:17:36;9.20;;;1.80;;
54555;SDS011;57291;37.520;15.106;2023-02-01T16:20:03;4.70;;;1.65;;
54555;SDS011;57291;37.520;15.106;2023-02-01T16:22:31;11.00;;;2.47;;
54555;SDS011;57291;37.520;15.106;2023-02-01T16:24:58;6.47;;;1.70;;
54555;SDS011;57291;37.520;15.106;2023-02-01T16:27:25;7.53;;;2.53;;
54555;SDS011;57291;37.520;15.106;2023-02-01T16:29:52;5.07;;;2.05;;
54555;SDS011;57291;37.520;15.106;2023-02-01T16:32:22;5.20;;;1.92;;
54555;SDS011;57291;37.520;15.106;2023-02-01T16:34:49;4.78;;;1.60;;
54555;SDS011;57291;37.520;15.106;2023-02-01T16:37:21;8.82;;;2.10;;
54555;SDS011;57291;37.520;15.106;2023-02-01T16:39:51;11.10;;;3.15;;
54555;SDS011;57291;37.520;15.106;2023-02-01T16:42:18;10.20;;;3.22;;
54555;SDS011;57291;37.520;15.106;2023-02-01T16:44:45;14.65;;;4.05;;
54555;SDS011;57291;37.520;15.106;2023-02-01T16:47:16;15.00;;;5.25;;
54555;SDS011;57291;37.520;15.106;2023-02-01T16:49:48;12.27;;;5.35;;
54555;SDS011;57291;37.520;15.106;2023-02-01T16:52:19;12.10;;;4.10;;
54555;SDS011;57291;37.520;15.106;2023-02-01T16:54:48;9.20;;;3.15;;
54555;SDS011;57291;37.520;15.106;2023-02-01T16:57:17;10.50;;;3.47;;
54555;SDS011;57291;37.520;15.106;2023-02-01T16:59:49;11.82;;;3.70;;
54555;SDS011;57291;37.520;15.106;2023-02-01T17:02:18;9.30;;;4.40;;
54555;SDS011;57291;37.520;15.106;2023-02-01T17:04:46;9.35;;;3.90;;
54555;SDS011;57291;37.520;15.106;2023-02-01T17:07:15;10.45;;;3.40;;
54555;SDS011;57291;37.520;15.106;2023-02-01T17:09:45;9.60;;;3.70;;
54555;SDS011;57291;37.520;15.106;2023-02-01T17:12:23;8.95;;;3.80;;
54555;SDS011;57291;37.520;15.106;2023-02-01T17:14:56;11.45;;;4.85;;
54555;SDS011;57291;37.520;15.106;2023-02-01T17:17:30;13.18;;;4.82;;
54555;SDS011;57291;37.520;15.106;2023-02-01T17:20:05;10.77;;;6.15;;
54555;SDS011;57291;37.520;15.106;2023-02-01T17:22:33;14.23;;;5.85;;
54555;SDS011;57291;37.520;15.106;2023-02-01T17:25:00;12.30;;;5.57;;
54555;SDS011;57291;37.520;15.106;2023-02-01T17:27:27;14.55;;;6.20;;
54555;SDS011;57291;37.520;15.106;2023-02-01T17:29:56;15.25;;;6.20;;
54555;SDS011;57291;37.520;15.106;2023-02-01T17:32:23;14.35;;;6.07;;
54555;SDS011;57291;37.520;15.106;2023-02-01T17:34:52;10.82;;;5.18;;
54555;SDS011;57291;37.520;15.106;2023-02-01T17:37:26;11.52;;;5.22;;
54555;SDS011;57291;37.520;15.106;2023-02-01T17:39:56;9.05;;;4.20;;
54555;SDS011;57291;37.520;15.106;2023-02-01T17:42:24;8.00;;;4.47;;
54555;SDS011;57291;37.520;15.106;2023-02-01T17:44:54;7.63;;;4.05;;
54555;SDS011;57291;37.520;15.106;2023-02-01T17:47:23;10.18;;;4.20;;
54555;SDS011;57291;37.520;15.106;2023-02-01T17:49:51;7.55;;;4.32;;
54555;SDS011;57291;37.520;15.106;2023-02-01T17:52:22;7.63;;;3.92;;
54555;SDS011;57291;37.520;15.106;2023-02-01T17:54:51;8.93;;;4.40;;
54555;SDS011;57291;37.520;15.106;2023-02-01T17:57:20;7.95;;;3.83;;